Time;durP1;ratioP1;P1;durP2;ratioP2;P2;SDS_P1;SDS_P2;PMS_P1;PMS_P2;Temp;Humidity;BMP_temperature;BMP_pressure;BME280_temperature;BME280_humidity;BME280_pressure;Samples;Min_cycle;Max_cycle;Signal;HPM_P1;HPM_P2
2022/03/22 00:01:47;;;;;;;90.88;44.05;;;;;;;3.03;42.94;102309.31;5072899;28;20127;-81
2022/03/22 00:04:16;;;;;;;94.35;46.22;;;;;;;3.01;43.10;102305.88;5076454;28;20052;-75
2022/03/22 00:06:44;;;;;;;108.20;47.22;;;;;;;2.93;43.05;102307.66;5076760;28;20556;-76
2022/03/22 00:09:11;;;;;;;97.88;49.47;;;;;;;2.92;43.12;102313.72;5076527;28;20097;-76
2022/03/22 00:11:38;;;;;;;116.57;47.85;;;;;;;2.91;43.40;102309.41;5075246;28;20135;-79
2022/03/22 00:14:08;;;;;;;96.78;45.63;;;;;;;2.93;43.26;102307.66;5074814;28;20084;-74
2022/03/22 00:16:38;;;;;;;99.43;47.97;;;;;;;2.95;43.20;102298.91;5076634;28;20040;-73
2022/03/22 00:19:05;;;;;;;106.68;48.28;;;;;;;2.97;42.93;102299.78;5081897;28;20091;-83
2022/03/22 00:21:35;;;;;;;113.80;52.90;;;;;;;2.98;43.14;102303.25;5077009;28;20146;-75
2022/03/22 00:24:02;;;;;;;99.15;48.13;;;;;;;2.95;43.20;102306.75;5077374;28;20087;-76
2022/03/22 00:26:29;;;;;;;88.93;46.72;;;;;;;2.95;43.42;102303.28;5077169;28;20044;-77
2022/03/22 00:28:57;;;;;;;101.03;47.90;;;;;;;3.00;43.17;102304.13;5082860;28;20059;-79
2022/03/22 00:31:26;;;;;;;79.50;42.83;;;;;;;3.03;43.23;102302.34;5075471;28;20048;-80
2022/03/22 00:33:53;;;;;;;102.70;44.42;;;;;;;3.06;43.12;102298.81;5074823;28;20083;-82
2022/03/22 00:36:24;;;;;;;90.60;48.17;;;;;;;3.06;42.78;102306.66;5072237;28;20076;-78
2022/03/22 00:38:54;;;;;;;76.47;37.95;;;;;;;3.08;42.91;102301.44;5069706;28;20491;-79
2022/03/22 00:41:22;;;;;;;81.32;40.80;;;;;;;3.12;42.64;102304.03;5069461;28;20055;-78
2022/03/22 00:43:49;;;;;;;90.65;42.90;;;;;;;3.14;42.93;102302.25;5068225;28;20106;-76
2022/03/22 00:46:16;;;;;;;92.38;42.50;;;;;;;3.12;42.84;102298.78;5068446;28;20579;-82
2022/03/22 00:48:47;;;;;;;82.68;39.97;;;;;;;3.11;42.87;102298.81;5067035;28;20072;-80
2022/03/22 00:51:14;;;;;;;91.95;43.85;;;;;;;3.10;43.07;102297.06;5067975;28;20139;-83
2022/03/22 00:53:42;;;;;;;94.88;43.25;;;;;;;3.07;43.04;102297.97;5067113;28;20139;-75
2022/03/22 00:56:11;;;;;;;96.90;45.25;;;;;;;3.01;43.24;102287.59;5067178;28;20155;-78
2022/03/22 00:58:38;;;;;;;90.47;40.58;;;;;;;2.96;43.39;102286.75;5067262;28;20048;-79
2022/03/22 01:01:05;;;;;;;88.95;42.75;;;;;;;2.92;43.19;102295.47;5066682;28;20131;-74
2022/03/22 01:03:32;;;;;;;87.68;41.40;;;;;;;2.91;43.18;102291.13;5065615;28;20099;-82
2022/03/22 01:06:01;;;;;;;77.07;41.10;;;;;;;2.83;43.47;102286.84;5067064;28;20064;-79
2022/03/22 01:08:29;;;;;;;87.20;41.13;;;;;;;2.76;43.47;102290.38;5067569;28;20059;-80
2022/03/22 01:10:57;;;;;;;85.30;38.28;;;;;;;2.66;43.53;102281.72;5066341;28;20489;-76
2022/03/22 01:13:27;;;;;;;82.65;39.33;;;;;;;2.61;43.71;102280.91;5066873;28;20086;-77
2022/03/22 01:15:54;;;;;;;76.72;40.22;;;;;;;2.57;43.61;102284.41;5066833;28;20047;-78
2022/03/22 01:18:21;;;;;;;71.10;42.42;;;;;;;2.54;43.72;102280.94;5072363;28;20108;-79
2022/03/22 01:20:50;;;;;;;75.03;39.50;;;;;;;2.51;43.57;102281.00;5086489;28;20625;-76
2022/03/22 01:23:19;;;;;;;77.38;38.85;;;;;;;2.49;43.64;102276.63;5086789;28;20042;-76
2022/03/22 01:25:46;;;;;;;74.55;38.55;;;;;;;2.46;43.51;102281.88;5086737;28;20121;-75
2022/03/22 01:28:14;;;;;;;87.00;41.38;;;;;;;2.45;43.80;102274.94;5086173;28;20538;-74
2022/03/22 01:30:43;;;;;;;86.00;43.25;;;;;;;2.46;43.71;102278.41;5086276;28;20104;-75
2022/03/22 01:33:12;;;;;;;81.53;37.88;;;;;;;2.39;43.71;102280.16;5084098;28;20067;-73
2022/03/22 01:35:40;;;;;;;69.35;36.85;;;;;;;2.26;43.95;102276.75;5085499;28;20044;-75
2022/03/22 01:38:07;;;;;;;79.85;40.35;;;;;;;2.16;44.28;102276.81;5086059;28;21210;-76
2022/03/22 01:40:35;;;;;;;93.40;41.00;;;;;;;2.10;43.98;102281.19;5085354;28;20052;-77
2022/03/22 01:43:02;;;;;;;81.32;40.28;;;;;;;2.09;44.20;102276.00;5090058;28;20062;-81
2022/03/22 01:45:29;;;;;;;100.45;45.95;;;;;;;2.10;44.19;102283.78;5089041;28;20146;-77
2022/03/22 01:48:03;;;;;;;72.40;40.03;;;;;;;2.07;43.89;102278.63;5089472;28;20127;-80
2022/03/22 01:50:31;;;;;;;84.07;39.38;;;;;;;1.93;43.89;102283.03;5089985;28;20411;-78
2022/03/22 01:52:59;;;;;;;74.28;39.50;;;;;;;1.82;44.40;102277.84;5090673;28;20054;-78
2022/03/22 01:55:27;;;;;;;100.38;44.72;;;;;;;1.79;44.07;102292.63;5089493;28;20523;-80
2022/03/22 01:57:56;;;;;;;83.95;43.35;;;;;;;1.74;44.36;102284.81;5093864;28;20121;-78
2022/03/22 02:00:23;;;;;;;87.32;42.42;;;;;;;1.75;44.47;102286.56;5100186;28;20059;-78
2022/03/22 02:06:02;;;;;;;93.30;45.85;;;;;;;1.75;44.56;102280.47;5089459;28;20059;-79
2022/03/22 02:08:31;;;;;;;88.95;40.55;;;;;;;1.70;44.43;102278.75;5092873;28;20420;-79
2022/03/22 02:11:00;;;;;;;104.00;49.70;;;;;;;1.65;45.07;102290.91;5090070;28;20140;-76
2022/03/22 02:13:27;;;;;;;83.63;41.35;;;;;;;1.64;45.02;102297.00;5091415;28;20075;-78
2022/03/22 02:15:58;;;;;;;87.60;42.10;;;;;;;1.67;45.26;102283.09;5089417;28;20047;-75
2022/03/22 02:18:26;;;;;;;81.72;39.17;;;;;;;1.68;45.11;102280.50;5096893;28;20071;-79
2022/03/22 02:20:55;;;;;;;80.88;40.00;;;;;;;1.75;45.31;102281.34;5089651;28;20101;-81
2022/03/22 02:23:35;;;;;;;82.13;41.80;;;;;;;1.82;45.00;102276.97;5093585;28;20066;-78
2022/03/22 02:26:02;;;;;;;85.43;40.95;;;;;;;1.84;45.33;102277.84;5096769;28;20052;-78
2022/03/22 02:28:30;;;;;;;77.63;39.83;;;;;;;1.84;45.20;102278.72;5098567;28;20101;-80
2022/03/22 02:30:57;;;;;;;87.07;40.90;;;;;;;1.88;45.05;102284.78;5093835;28;20665;-81
2022/03/22 02:33:24;;;;;;;83.30;38.97;;;;;;;1.89;45.37;102286.50;5093370;28;20083;-78
2022/03/22 02:35:52;;;;;;;80.90;45.20;;;;;;;1.87;45.33;102278.72;5095036;28;20079;-81
2022/03/22 02:38:19;;;;;;;93.07;44.88;;;;;;;1.88;45.45;102287.38;5096436;28;20593;-80
2022/03/22 02:40:48;;;;;;;85.05;43.28;;;;;;;1.90;45.68;102291.69;5094425;28;20059;-78
2022/03/22 02:43:16;;;;;;;101.07;47.75;;;;;;;1.88;45.70;102274.34;5094850;28;20462;-77
2022/03/22 02:45:43;;;;;;;116.32;54.13;;;;;;;1.88;45.76;102277.81;5092570;28;20075;-79
2022/03/22 02:48:11;;;;;;;98.53;48.45;;;;;;;1.90;45.57;102276.06;5095127;28;20075;-81
2022/03/22 02:50:39;;;;;;;89.05;43.17;;;;;;;1.92;45.78;102278.66;5100353;28;20072;-80
2022/03/22 02:53:06;;;;;;;88.32;40.92;;;;;;;1.90;45.40;102286.50;5103410;28;20614;-80
2022/03/22 02:55:33;;;;;;;90.07;42.35;;;;;;;1.83;45.49;102295.19;5101228;28;20063;-79
2022/03/22 02:58:02;;;;;;;74.20;44.58;;;;;;;1.74;45.77;102292.63;5106003;28;20048;-78
2022/03/22 03:00:29;;;;;;;91.78;45.28;;;;;;;1.70;45.78;102296.97;5107308;28;20066;-80
2022/03/22 03:02:56;;;;;;;94.57;45.28;;;;;;;1.69;45.93;102300.47;5108873;28;20068;-79
2022/03/22 03:05:24;;;;;;;88.05;40.88;;;;;;;1.66;46.06;102299.63;5108638;28;20032;-74
2022/03/22 03:07:52;;;;;;;85.35;42.33;;;;;;;1.57;45.97;102300.50;5105076;28;20083;-76
2022/03/22 03:10:19;;;;;;;92.30;42.45;;;;;;;1.52;46.17;102304.84;5104801;28;20340;-74
2022/03/22 03:12:47;;;;;;;101.10;46.35;;;;;;;1.53;45.92;102301.34;5104683;28;20109;-75
2022/03/22 03:15:17;;;;;;;84.55;39.45;;;;;;;1.54;45.88;102300.50;5107798;28;20036;-76
2022/03/22 03:17:45;;;;;;;78.10;39.38;;;;;;;1.54;45.96;102303.09;5108070;28;20040;-77
2022/03/22 03:20:12;;;;;;;74.05;36.10;;;;;;;1.56;46.01;102305.72;5108530;28;20059;-78
2022/03/22 03:22:39;;;;;;;80.50;40.55;;;;;;;1.53;45.85;102303.97;5098792;28;20505;-79
2022/03/22 03:25:08;;;;;;;83.60;42.63;;;;;;;1.53;45.75;102306.56;5093688;28;20522;-78
2022/03/22 03:27:35;;;;;;;85.75;42.42;;;;;;;1.48;45.87;102308.34;5093210;28;20070;-77
2022/03/22 03:30:05;;;;;;;84.43;39.45;;;;;;;1.47;45.87;102306.59;5093970;28;20043;-79
2022/03/22 03:32:42;;;;;;;81.68;38.10;;;;;;;1.47;46.06;102304.84;5092079;28;20047;-79
2022/03/22 03:35:10;;;;;;;73.22;36.20;;;;;;;1.46;46.07;102299.63;5095028;28;20050;-80
2022/03/22 03:37:39;;;;;;;75.97;38.28;;;;;;;1.41;45.78;102301.41;5093741;28;20093;-79
2022/03/22 03:40:08;;;;;;;78.05;39.50;;;;;;;1.33;45.83;102311.81;5090069;28;20055;-79
2022/03/22 03:42:41;;;;;;;84.22;39.75;;;;;;;1.24;46.20;102311.81;5090826;28;20133;-77
2022/03/22 03:47:56;;;;;;;;;;;;;;;1.39;45.26;102310.94;5091421;28;20397;-75
2022/03/22 03:50:24;;;;;;;85.65;40.05;;;;;;;1.18;45.86;102311.84;5089773;28;19927;-77
2022/03/22 03:52:51;;;;;;;86.30;40.65;;;;;;;1.14;45.89;102310.97;5089528;28;20389;-77
2022/03/22 03:55:18;;;;;;;87.43;41.35;;;;;;;1.10;46.38;102306.63;5089815;28;20048;-77
2022/03/22 03:57:46;;;;;;;85.75;42.92;;;;;;;1.06;46.59;102310.09;5088650;28;20123;-76
2022/03/22 04:00:15;;;;;;;90.60;45.17;;;;;;;1.08;46.82;102316.16;5089330;28;20048;-76
2022/03/22 04:02:42;;;;;;;82.47;44.63;;;;;;;1.11;46.53;102319.63;5087356;28;20056;-78
2022/03/22 04:05:11;;;;;;;88.57;43.05;;;;;;;1.17;46.71;102317.88;5089057;28;20119;-81
2022/03/22 04:07:38;;;;;;;78.55;41.60;;;;;;;1.13;46.74;102317.91;5089624;28;20563;-79
2022/03/22 04:10:07;;;;;;;86.55;42.28;;;;;;;1.13;47.24;102317.03;5090634;28;20135;-78
2022/03/22 04:12:41;;;;;;;76.75;42.67;;;;;;;1.16;47.17;102317.03;5091763;28;20075;-79
2022/03/22 04:15:09;;;;;;;82.63;43.65;;;;;;;1.17;47.33;102324.00;5089083;28;20043;-79
2022/03/22 04:17:36;;;;;;;79.35;40.80;;;;;;;1.14;47.13;102321.38;5088338;28;20052;-73
2022/03/22 04:20:03;;;;;;;81.57;40.63;;;;;;;1.19;47.18;102317.03;5088033;28;20134;-75
2022/03/22 04:22:32;;;;;;;92.93;38.53;;;;;;;1.19;47.44;102316.16;5088613;28;20076;-77
2022/03/22 04:24:59;;;;;;;78.80;36.60;;;;;;;1.17;47.37;102317.88;5086639;28;20040;-74
2022/03/22 04:32:57;;;;;;;75.90;39.30;;;;;;;0.97;47.23;102328.28;5085943;28;20136;-72
2022/03/22 04:35:27;;;;;;;84.97;39.22;;;;;;;0.95;47.42;102323.97;5086115;28;20063;-79
2022/03/22 04:37:56;;;;;;;84.22;41.90;;;;;;;0.99;47.69;102323.97;5087830;28;20135;-80
2022/03/22 04:40:25;;;;;;;75.32;38.55;;;;;;;1.02;47.26;102323.97;5090891;28;20044;-76
2022/03/22 04:42:53;;;;;;;65.13;37.45;;;;;;;1.04;47.31;102320.50;5098183;28;20105;-77
2022/03/22 04:45:20;;;;;;;72.80;38.40;;;;;;;1.04;47.49;102328.28;5087314;28;20687;-78
2022/03/22 04:47:49;;;;;;;73.72;36.00;;;;;;;1.08;47.21;102330.06;5086421;28;20044;-78
2022/03/22 04:50:17;;;;;;;72.50;38.53;;;;;;;1.17;47.17;102326.59;5086311;28;20085;-76
2022/03/22 04:58:16;;;;;;;88.60;39.13;;;;;;;1.33;46.98;102335.22;5077668;28;20113;-75
2022/03/22 05:00:44;;;;;;;80.70;37.58;;;;;;;1.47;46.89;102333.47;5075756;28;20063;-74
2022/03/22 05:03:11;;;;;;;73.35;39.25;;;;;;;1.67;46.52;102333.44;5074416;28;20143;-76
2022/03/22 05:08:23;;;;;;;77.70;38.10;;;;;;;2.03;45.93;102339.44;5073006;28;20547;-78
2022/03/22 05:10:56;;;;;;;72.93;38.28;;;;;;;2.08;46.04;102327.25;5078909;28;20041;-77
2022/03/22 05:13:23;;;;;;;82.70;40.25;;;;;;;2.12;46.10;102335.94;5090142;28;20040;-80
2022/03/22 05:15:50;;;;;;;77.75;38.15;;;;;;;2.08;45.93;102337.69;5092088;28;20384;-74
2022/03/22 05:18:17;;;;;;;79.10;37.88;;;;;;;2.07;46.07;102333.34;5087813;28;20046;-75
2022/03/22 05:20:44;;;;;;;77.97;38.45;;;;;;;2.05;46.28;102332.50;5082835;28;20056;-80
2022/03/22 05:23:11;;;;;;;73.03;37.30;;;;;;;2.06;46.18;102334.22;5077596;28;20123;-76
2022/03/22 05:25:38;;;;;;;72.10;42.05;;;;;;;2.04;46.39;102332.50;5095156;28;20223;-77
2022/03/22 05:28:06;;;;;;;75.70;39.17;;;;;;;2.05;46.20;102329.00;5094312;28;20209;-76
2022/03/22 05:30:34;;;;;;;89.05;35.45;;;;;;;2.10;46.11;102330.72;5092100;28;20134;-76
2022/03/22 05:33:01;;;;;;;83.47;38.50;;;;;;;2.14;46.32;102335.94;5089190;28;20052;-75
2022/03/22 05:35:29;;;;;;;83.57;42.92;;;;;;;2.14;46.32;102336.78;5093269;28;20131;-81
2022/03/22 05:37:56;;;;;;;86.65;45.28;;;;;;;2.14;46.38;102336.78;5091285;28;20487;-76
2022/03/22 05:40:24;;;;;;;84.90;40.95;;;;;;;2.17;46.51;102335.94;5090860;28;20137;-76
2022/03/22 05:42:51;;;;;;;95.68;44.28;;;;;;;2.25;46.56;102335.03;5101355;28;20023;-76
2022/03/22 05:45:20;;;;;;;90.18;45.35;;;;;;;2.34;46.45;102336.72;5089312;28;20047;-75
2022/03/22 05:47:48;;;;;;;90.63;41.30;;;;;;;2.42;46.52;102337.53;5090082;28;20622;-76
2022/03/22 05:50:15;;;;;;;77.50;41.72;;;;;;;2.53;46.06;102334.00;5090339;28;20635;-78
2022/03/22 05:52:43;;;;;;;83.88;40.97;;;;;;;2.63;46.06;102339.16;5086903;28;20047;-71
2022/03/22 05:55:11;;;;;;;80.75;42.60;;;;;;;2.75;45.89;102329.53;5091266;28;20051;-76
2022/03/22 05:57:38;;;;;;;84.43;41.92;;;;;;;2.88;46.09;102331.16;5090577;28;20123;-78
2022/03/22 06:00:08;;;;;;;74.50;41.38;;;;;;;3.01;45.85;102343.25;5092508;28;20135;-77
2022/03/22 06:02:39;;;;;;;73.53;40.53;;;;;;;3.15;45.73;102344.88;5094001;28;20099;-74
2022/03/22 06:05:08;;;;;;;83.88;41.10;;;;;;;3.29;45.61;102337.81;5095583;28;20095;-75
2022/03/22 06:07:35;;;;;;;78.15;42.75;;;;;;;3.45;45.73;102344.63;5091841;28;20067;-75
2022/03/22 06:10:03;;;;;;;70.60;36.15;;;;;;;3.60;45.29;102341.03;5095143;28;20109;-76
2022/03/22 06:12:38;;;;;;;72.55;38.92;;;;;;;3.78;45.33;102349.53;5096747;28;20452;-75
2022/03/22 06:15:16;;;;;;;74.45;39.35;;;;;;;3.94;45.06;102342.41;5091443;28;20071;-78
2022/03/22 06:17:45;;;;;;;74.95;39.03;;;;;;;4.10;44.97;102343.94;5088042;28;20465;-78
2022/03/22 06:20:13;;;;;;;82.35;40.38;;;;;;;4.27;44.91;102340.25;5088443;28;20083;-75
2022/03/22 06:22:40;;;;;;;78.88;39.88;;;;;;;4.45;44.54;102337.41;5087821;28;20132;-74
2022/03/22 06:25:07;;;;;;;79.38;42.60;;;;;;;4.63;44.63;102335.41;5087342;28;20532;-74
2022/03/22 06:27:35;;;;;;;68.75;36.85;;;;;;;4.83;44.50;102337.75;5084271;28;20044;-75
2022/03/22 06:30:04;;;;;;;79.25;39.08;;;;;;;5.02;44.20;102331.31;5086473;28;20443;-74
2022/03/22 06:32:31;;;;;;;65.85;35.90;;;;;;;5.24;44.10;102337.09;5083971;28;20851;-75
2022/03/22 06:34:59;;;;;;;89.93;44.65;;;;;;;5.46;43.76;102337.59;5085173;28;20419;-75
2022/03/22 06:37:26;;;;;;;89.70;46.30;;;;;;;5.65;43.56;102338.09;5089601;28;20090;-78
2022/03/22 06:39:53;;;;;;;95.25;45.40;;;;;;;5.88;43.30;102329.81;5087054;28;20131;-75
2022/03/22 06:42:20;;;;;;;69.32;37.28;;;;;;;6.10;42.97;102338.16;5087032;28;20136;-80
2022/03/22 06:44:47;;;;;;;62.70;34.97;;;;;;;6.30;42.73;102334.25;5084735;28;20559;-73
2022/03/22 06:47:14;;;;;;;58.10;32.30;;;;;;;6.51;42.40;102328.53;5083058;28;20560;-78
2022/03/22 06:49:43;;;;;;;62.30;35.20;;;;;;;6.71;42.22;102337.72;5085254;28;20729;-75
2022/03/22 06:52:12;;;;;;;61.35;35.90;;;;;;;6.91;42.03;102329.38;5083701;28;20039;-74
2022/03/22 06:54:39;;;;;;;64.70;34.67;;;;;;;7.09;41.76;102338.56;5083404;28;20044;-72
2022/03/22 06:57:06;;;;;;;57.78;33.92;;;;;;;7.27;41.73;102327.63;5084284;28;20070;-74
2022/03/22 06:59:33;;;;;;;58.78;33.10;;;;;;;7.45;41.54;102331.53;5083412;28;20135;-74
2022/03/22 07:02:00;;;;;;;57.53;33.42;;;;;;;7.67;41.28;102336.25;5083066;28;20142;-71
2022/03/22 07:04:28;;;;;;;67.97;33.25;;;;;;;7.84;40.86;102331.34;5077534;28;20054;-72
2022/03/22 07:06:55;;;;;;;60.25;33.55;;;;;;;8.06;40.61;102332.53;5083769;28;20040;-74
2022/03/22 07:09:23;;;;;;;55.50;32.35;;;;;;;8.23;40.30;102330.28;5083552;28;20131;-72
2022/03/22 07:11:51;;;;;;;59.03;33.42;;;;;;;8.42;40.03;102325.34;5082044;28;20066;-73
2022/03/22 07:14:19;;;;;;;58.05;32.63;;;;;;;8.59;39.84;102333.59;5085763;28;20497;-73
2022/03/22 07:16:47;;;;;;;62.95;34.78;;;;;;;8.80;39.56;102331.19;5085547;28;20044;-72
2022/03/22 07:19:14;;;;;;;52.45;30.42;;;;;;;8.97;39.28;102322.75;5087197;28;20100;-70
2022/03/22 07:21:42;;;;;;;55.13;32.50;;;;;;;9.15;39.11;102326.56;5086480;28;20059;-70
2022/03/22 07:24:09;;;;;;;57.75;33.47;;;;;;;9.33;38.95;102333.84;5086006;28;20044;-73
2022/03/22 07:26:38;;;;;;;57.75;35.58;;;;;;;9.53;38.71;102327.03;5088623;28;20565;-72
2022/03/22 07:29:06;;;;;;;56.88;34.38;;;;;;;9.71;38.76;102321.09;5088985;28;20048;-75
2022/03/22 07:31:37;;;;;;;53.40;32.13;;;;;;;9.88;38.38;102330.19;5088744;28;20060;-75
2022/03/22 07:34:06;;;;;;;54.60;32.10;;;;;;;10.08;37.98;102326.81;5104432;28;20044;-73
2022/03/22 07:36:35;;;;;;;54.35;33.78;;;;;;;10.25;37.88;102327.03;5104195;28;20052;-72
2022/03/22 07:39:03;;;;;;;51.78;30.88;;;;;;;10.48;37.61;102323.56;5083535;28;20109;-75
2022/03/22 07:41:30;;;;;;;54.10;31.90;;;;;;;10.65;37.43;102328.16;5082609;28;20519;-72
2022/03/22 07:43:58;;;;;;;54.50;30.52;;;;;;;10.81;37.27;102330.22;5081855;28;20044;-75
2022/03/22 07:46:25;;;;;;;54.88;31.13;;;;;;;11.00;36.89;102319.72;5082717;28;20044;-73
2022/03/22 07:48:52;;;;;;;49.90;29.00;;;;;;;11.23;36.57;102321.41;5085304;28;20078;-73
2022/03/22 07:54:05;;;;;;;46.00;28.93;;;;;;;11.70;36.13;102326.44;5084166;28;20055;-73
2022/03/22 07:56:32;;;;;;;39.65;25.75;;;;;;;11.86;36.09;102331.94;5084912;28;20293;-71
2022/03/22 07:59:03;;;;;;;45.28;25.60;;;;;;;12.02;35.86;102326.84;5083788;28;20099;-78
2022/03/22 08:01:30;;;;;;;43.70;28.02;;;;;;;12.22;35.57;102321.47;5087606;28;20452;-74
2022/03/22 08:03:57;;;;;;;38.83;26.42;;;;;;;12.42;35.31;102325.88;5082917;28;20123;-76
2022/03/22 08:06:23;;;;;;;41.03;23.65;;;;;;;12.61;35.07;102322.31;5083357;28;20093;-75
2022/03/22 08:08:50;;;;;;;38.70;22.70;;;;;;;12.82;34.64;102318.63;5083522;28;20103;-79
2022/03/22 08:11:17;;;;;;;40.17;24.50;;;;;;;13.04;34.39;102314.06;5088979;28;20115;-78
2022/03/22 08:13:44;;;;;;;37.10;23.30;;;;;;;13.20;34.24;102315.88;5085598;28;20100;-78
2022/03/22 08:16:14;;;;;;;32.13;19.40;;;;;;;13.50;33.87;102309.09;5085501;28;20048;-77
2022/03/22 08:18:41;;;;;;;35.63;21.52;;;;;;;13.75;33.35;102308.66;5081313;28;20661;-72
2022/03/22 08:21:08;;;;;;;32.67;19.00;;;;;;;14.09;33.06;102305.03;5085674;28;20098;-75
2022/03/22 08:23:35;;;;;;;32.42;20.15;;;;;;;14.46;32.57;102308.34;5085508;28;20044;-78
2022/03/22 08:26:02;;;;;;;33.28;20.30;;;;;;;14.68;32.33;102310.66;5082243;28;20119;-74
2022/03/22 08:28:29;;;;;;;32.38;20.35;;;;;;;14.77;32.11;102308.44;5082619;28;20468;-77
2022/03/22 08:30:56;;;;;;;33.35;22.08;;;;;;;14.88;31.66;102306.00;5081489;28;20044;-73
2022/03/22 08:33:24;;;;;;;34.95;20.42;;;;;;;15.04;31.59;102306.81;5084133;28;20439;-77
2022/03/22 08:35:52;;;;;;;28.63;19.15;;;;;;;15.39;31.09;102301.19;5084810;28;20131;-74
2022/03/22 08:38:21;;;;;;;32.78;20.27;;;;;;;15.63;30.60;102306.00;5083957;28;20078;-77
2022/03/22 08:40:49;;;;;;;32.40;19.52;;;;;;;15.94;30.43;102309.47;5083444;28;20056;-79
2022/03/22 08:43:16;;;;;;;26.73;19.90;;;;;;;16.29;30.10;102303.69;5084027;28;20128;-73
2022/03/22 08:45:43;;;;;;;35.35;21.60;;;;;;;16.31;29.93;102299.13;5086264;28;20048;-77
2022/03/22 08:48:11;;;;;;;34.20;20.23;;;;;;;16.56;29.74;102301.91;5084247;28;20071;-78
2022/03/22 08:50:42;;;;;;;40.05;22.52;;;;;;;16.76;29.44;102299.75;5089425;28;20119;-80
2022/03/22 08:53:09;;;;;;;34.25;22.13;;;;;;;16.76;29.34;102302.41;5088731;28;20131;-78
2022/03/22 08:55:36;;;;;;;36.95;20.42;;;;;;;16.98;29.29;102300.06;5090074;28;20136;-79
2022/03/22 08:58:05;;;;;;;32.38;19.73;;;;;;;17.38;29.02;102291.16;5095583;28;20715;-76
2022/03/22 09:00:33;;;;;;;27.67;19.42;;;;;;;17.74;28.45;102297.59;5102004;28;20131;-77
2022/03/22 09:03:01;;;;;;;32.25;21.25;;;;;;;17.92;28.14;102288.28;5099738;28;20048;-74
2022/03/22 09:08:15;;;;;;;31.15;18.92;;;;;;;18.52;27.47;102286.59;5112695;28;20073;-75
2022/03/22 09:10:43;;;;;;;33.30;22.05;;;;;;;18.70;27.21;102278.19;5110757;28;20048;-73
2022/03/22 09:13:10;;;;;;;29.23;22.55;;;;;;;18.89;26.68;102280.38;5111900;28;20028;-78
2022/03/22 09:15:39;;;;;;;29.60;22.13;;;;;;;19.00;26.57;102282.22;5107899;28;20032;-76
2022/03/22 09:18:12;;;;;;;37.78;21.05;;;;;;;19.11;26.21;102284.94;5109413;28;20111;-78
2022/03/22 09:20:39;;;;;;;30.38;19.48;;;;;;;19.23;25.95;102278.63;5107051;28;20055;-77
2022/03/22 09:23:08;;;;;;;29.23;19.08;;;;;;;19.31;25.73;102275.34;5104603;28;20036;-77
2022/03/22 09:25:37;;;;;;;33.65;18.60;;;;;;;19.46;25.32;102270.63;5087560;28;20060;-74
2022/03/22 09:28:06;;;;;;;32.13;22.10;;;;;;;19.19;25.19;102271.78;5082230;28;20678;-77
2022/03/22 09:30:34;;;;;;;31.50;21.30;;;;;;;19.28;25.19;102263.06;5066411;28;20128;-78
2022/03/22 09:33:02;;;;;;;39.97;19.92;;;;;;;19.59;25.05;102270.50;5070038;28;20524;-77
2022/03/22 09:35:29;;;;;;;27.75;16.67;;;;;;;19.47;24.43;102267.81;5086439;28;20119;-77
2022/03/22 09:37:57;;;;;;;23.10;16.42;;;;;;;19.28;24.26;102260.38;5088100;28;20051;-79
2022/03/22 09:40:25;;;;;;;24.35;15.18;;;;;;;19.30;24.16;102260.25;5090347;28;20491;-78
2022/03/22 09:42:54;;;;;;;22.50;15.07;;;;;;;19.17;23.72;102254.16;5086893;28;20040;-75
2022/03/22 09:45:25;;;;;;;17.58;13.25;;;;;;;18.95;22.88;102253.13;5088916;28;20051;-76
2022/03/22 09:47:52;;;;;;;18.25;12.48;;;;;;;18.93;23.29;102254.22;5088852;28;20044;-78
2022/03/22 09:51:44;;;;;;;20.45;12.85;;;;;;;18.89;22.84;102251.75;5087510;28;20125;-74
2022/03/22 09:53:08;;;;;;;19.73;13.25;;;;;;;19.08;22.76;102247.66;5086872;28;20089;-75
2022/03/22 09:55:36;;;;;;;17.52;11.98;;;;;;;19.12;22.77;102245.59;5090170;28;20495;-77
2022/03/22 09:58:05;;;;;;;16.08;11.05;;;;;;;19.23;22.43;102245.63;5088909;28;20048;-77
2022/03/22 10:00:32;;;;;;;18.88;11.60;;;;;;;19.33;22.45;102237.75;5089064;28;20047;-79
2022/03/22 10:03:00;;;;;;;13.80;10.70;;;;;;;19.49;21.64;102240.91;5084282;28;20051;-77
2022/03/22 10:05:28;;;;;;;16.10;11.05;;;;;;;19.42;21.79;102242.38;5085366;28;20075;-74
2022/03/22 10:07:59;;;;;;;16.90;11.50;;;;;;;19.42;21.83;102239.69;5086862;28;20051;-77
2022/03/22 10:10:27;;;;;;;17.05;11.75;;;;;;;19.33;21.80;102240.41;5085693;28;20519;-75
2022/03/22 10:13:00;;;;;;;14.60;9.98;;;;;;;19.33;21.84;102232.38;5085476;28;20546;-75
2022/03/22 10:15:34;;;;;;;19.02;12.25;;;;;;;19.36;21.68;102241.03;5085126;28;20125;-76
2022/03/22 10:18:06;;;;;;;20.50;12.68;;;;;;;19.48;21.83;102233.84;5083524;28;20403;-73
2022/03/22 10:20:35;;;;;;;17.33;12.57;;;;;;;19.53;21.73;102234.31;5084378;28;20641;-75
2022/03/22 10:23:03;;;;;;;16.15;11.30;;;;;;;19.54;21.69;102229.84;5084746;28;20044;-74
2022/03/22 10:25:32;;;;;;;18.48;11.65;;;;;;;19.42;21.77;102226.28;5084240;28;20048;-73
2022/03/22 10:28:01;;;;;;;16.90;12.13;;;;;;;19.31;21.87;102226.28;5084203;28;20055;-77
2022/03/22 10:30:29;;;;;;;19.85;12.00;;;;;;;19.41;21.78;102228.13;5084661;28;20404;-80
2022/03/22 10:32:58;;;;;;;23.00;14.38;;;;;;;19.62;21.91;102220.19;5081818;28;20052;-75
2022/03/22 10:35:27;;;;;;;18.80;13.05;;;;;;;19.71;21.62;102223.13;5083903;28;20494;-76
2022/03/22 10:37:55;;;;;;;17.23;12.23;;;;;;;19.71;21.67;102213.25;5084208;28;20424;-74
2022/03/22 10:40:26;;;;;;;20.45;13.82;;;;;;;19.63;21.80;102204.97;5085950;28;20127;-74
2022/03/22 10:42:55;;;;;;;17.63;12.73;;;;;;;19.55;21.44;102221.66;5093459;28;20101;-73
2022/03/22 10:45:22;;;;;;;17.38;10.90;;;;;;;19.30;21.67;102214.69;5092573;28;20048;-75
2022/03/22 10:47:49;;;;;;;21.02;12.32;;;;;;;19.31;21.53;102212.91;5090670;28;20139;-76
2022/03/22 10:50:18;;;;;;;17.88;10.57;;;;;;;19.36;21.51;102213.38;5095113;28;20079;-75
2022/03/22 10:52:53;;;;;;;16.08;11.07;;;;;;;19.44;21.36;102205.59;5095492;28;20135;-76
2022/03/22 10:55:21;;;;;;;21.15;13.38;;;;;;;19.44;21.29;102206.44;5093882;28;20099;-75
2022/03/22 10:57:55;;;;;;;20.58;12.65;;;;;;;19.62;21.23;102201.44;5096669;28;20323;-76
2022/03/22 11:00:23;;;;;;;16.10;11.75;;;;;;;19.67;21.03;102199.22;5094804;28;20104;-73
2022/03/22 11:02:52;;;;;;;19.05;12.40;;;;;;;19.78;21.08;102187.69;5090601;28;20378;-77
2022/03/22 11:05:23;;;;;;;19.67;12.85;;;;;;;19.92;21.05;102197.28;5068941;28;20110;-74
2022/03/22 11:07:51;;;;;;;18.27;12.90;;;;;;;19.99;21.23;102195.81;5067424;28;20087;-75
2022/03/22 11:10:19;;;;;;;18.63;12.63;;;;;;;19.99;21.30;102185.09;5063986;28;20048;-76
2022/03/22 11:12:47;;;;;;;18.73;12.57;;;;;;;19.91;21.46;102181.31;5065973;28;20048;-74
2022/03/22 11:15:16;;;;;;;18.85;13.65;;;;;;;19.78;21.10;102186.84;5066487;28;20076;-77
2022/03/22 11:17:44;;;;;;;17.75;13.32;;;;;;;19.58;21.06;102175.84;5066607;28;20123;-79
2022/03/22 11:20:14;;;;;;;18.20;12.52;;;;;;;19.57;21.20;102174.16;5067823;28;20048;-73
2022/03/22 11:22:54;;;;;;;24.50;13.25;;;;;;;19.66;21.48;102176.09;5066581;28;20070;-74
2022/03/22 11:25:31;;;;;;;22.00;14.68;;;;;;;19.73;21.35;102164.88;5065690;28;20052;-77
2022/03/22 11:28:00;;;;;;;20.73;13.57;;;;;;;19.66;21.28;102168.06;5072043;28;20036;-75
2022/03/22 11:30:29;;;;;;;21.73;14.68;;;;;;;19.67;21.46;102164.38;5077416;28;20036;-73
2022/03/22 11:35:49;;;;;;;20.83;16.10;;;;;;;19.72;21.42;102157.81;5088883;28;20139;-74
2022/03/22 11:38:46;;;;;;;25.48;14.90;;;;;;;19.51;21.83;102150.50;5083704;28;20135;-75
2022/03/22 11:44:10;;;;;;;22.75;14.70;;;;;;;19.54;22.19;102149.44;5083985;28;20160;-77
2022/03/22 11:46:37;;;;;;;24.85;15.88;;;;;;;19.62;22.16;102147.81;5083825;28;20044;-75
2022/03/22 11:49:21;;;;;;;23.98;14.80;;;;;;;19.72;21.81;102139.06;5083572;28;20250;-77
2022/03/22 11:51:49;;;;;;;22.50;14.75;;;;;;;19.71;21.94;102143.53;5083161;28;20048;-75